createdAt,value
2019-02-03T00:00:31.548Z,13.00
2019-02-03T00:05:32.905Z,13.50
2019-02-03T00:10:34.241Z,13.70
2019-02-03T00:15:35.491Z,13.80
2019-02-03T00:20:37.157Z,13.50
2019-02-03T00:25:38.393Z,13.70
2019-02-03T00:30:39.687Z,13.70
2019-02-03T00:35:40.928Z,13.80
2019-02-03T00:40:42.188Z,13.70
2019-02-03T00:45:43.721Z,13.40
2019-02-03T00:50:45.094Z,13.70
2019-02-03T00:55:46.345Z,13.90
2019-02-03T01:00:47.825Z,13.80
2019-02-03T01:05:49.282Z,13.70
2019-02-03T01:10:50.751Z,13.90
2019-02-03T01:15:51.991Z,13.30
2019-02-03T01:20:53.465Z,13.40
2019-02-03T01:25:54.712Z,13.40
2019-02-03T01:30:55.956Z,13.40
2019-02-03T01:35:57.189Z,13.30
2019-02-03T01:40:58.439Z,13.00
2019-02-03T01:45:59.750Z,13.20
2019-02-03T01:51:01.011Z,13.40
2019-02-03T01:56:02.376Z,13.40
2019-02-03T02:01:04.234Z,13.50
2019-02-03T02:06:05.487Z,13.50
2019-02-03T02:11:06.723Z,13.30
2019-02-03T02:16:07.972Z,12.80
2019-02-03T02:21:09.240Z,12.30
2019-02-03T02:26:10.488Z,12.40
2019-02-03T02:31:12.561Z,12.20
2019-02-03T02:36:13.903Z,12.50
2019-02-03T02:41:15.159Z,12.00
2019-02-03T02:46:16.393Z,12.00
2019-02-03T02:51:17.661Z,12.00
2019-02-03T02:56:18.924Z,11.30
2019-02-03T03:01:20.188Z,11.00
2019-02-03T03:06:21.534Z,10.50
2019-02-03T03:11:22.801Z,10.20
2019-02-03T03:16:24.070Z,10.10
2019-02-03T03:21:25.349Z,9.10
2019-02-03T03:26:26.591Z,9.20
2019-02-03T03:31:29.763Z,9.50
2019-02-03T03:36:31.019Z,8.70
2019-02-03T03:41:32.477Z,9.10
2019-02-03T03:46:33.730Z,9.20
2019-02-03T03:51:35.006Z,8.70
2019-02-03T03:56:36.266Z,8.70
2019-02-03T04:01:37.625Z,8.50
2019-02-03T04:06:39.077Z,8.10
2019-02-03T04:11:40.416Z,8.00
2019-02-03T04:16:41.698Z,8.00
2019-02-03T04:21:42.910Z,7.40
2019-02-03T04:26:44.164Z,6.40
2019-02-03T04:31:45.414Z,7.00
2019-02-03T04:36:46.650Z,6.50
2019-02-03T04:41:47.910Z,6.40
2019-02-03T04:46:49.172Z,7.10
2019-02-03T04:51:50.414Z,6.50
2019-02-03T04:56:51.646Z,6.00
2019-02-03T05:01:52.899Z,6.40
2019-02-03T05:06:54.146Z,6.60
2019-02-03T05:11:55.438Z,7.30
2019-02-03T05:16:56.671Z,5.50
2019-02-03T05:21:57.915Z,4.40
2019-02-03T05:26:59.178Z,4.90
2019-02-03T05:32:00.868Z,5.10
2019-02-03T05:37:02.110Z,5.10
2019-02-03T05:42:03.896Z,4.00
2019-02-03T05:47:05.145Z,1.00
2019-02-03T05:52:06.436Z,3.60
2019-02-03T05:57:07.661Z,3.20
2019-02-03T06:02:10.149Z,4.50
2019-02-03T06:07:11.529Z,1.50
2019-02-03T06:12:12.874Z,2.60
2019-02-03T06:17:16.466Z,1.80
2019-02-03T06:22:17.707Z,4.10
2019-02-03T06:27:18.954Z,4.60
2019-02-03T06:32:20.242Z,5.60
2019-02-03T06:37:21.482Z,5.30
2019-02-03T06:42:22.708Z,6.20
2019-02-03T06:47:24.476Z,5.60
2019-02-03T06:52:25.725Z,5.60
2019-02-03T06:57:28.962Z,4.70
2019-02-03T07:02:30.132Z,4.10
2019-02-03T07:07:34.480Z,3.20
2019-02-03T07:12:37.730Z,5.10
2019-02-03T07:17:38.983Z,5.90
2019-02-03T07:22:41.515Z,5.50
2019-02-03T07:27:43.036Z,4.60
2019-02-03T07:32:46.198Z,5.10
2019-02-03T07:37:47.429Z,5.90
2019-02-03T07:42:48.660Z,5.90
2019-02-03T07:47:52.694Z,6.00
2019-02-03T07:52:55.840Z,5.90
2019-02-03T07:57:57.180Z,5.80
2019-02-03T08:02:58.521Z,5.10
2019-02-03T08:07:59.753Z,5.60
2019-02-03T08:13:01.324Z,5.50
2019-02-03T08:18:03.576Z,5.10
2019-02-03T08:23:05.079Z,4.60
2019-02-03T08:28:06.335Z,5.10
2019-02-03T08:33:07.586Z,5.60
2019-02-03T08:38:08.832Z,3.20
2019-02-03T08:43:10.088Z,4.10
2019-02-03T08:48:11.355Z,3.60
2019-02-03T08:53:12.904Z,4.00
2019-02-03T08:58:14.146Z,4.60
2019-02-03T09:03:15.395Z,5.60
2019-02-03T09:08:16.622Z,1.80
2019-02-03T09:13:17.973Z,5.30
2019-02-03T09:18:20.032Z,1.60
2019-02-03T09:23:21.286Z,2.50
2019-02-03T09:28:22.553Z,1.00
2019-02-03T09:33:23.822Z,2.40
2019-02-03T09:38:25.068Z,1.00
2019-02-03T09:43:26.601Z,1.00
2019-02-03T09:48:27.878Z,1.80
2019-02-03T09:53:29.123Z,1.00
2019-02-03T09:58:30.396Z,1.00
2019-02-03T10:03:31.651Z,1.00
2019-02-03T10:08:40.479Z,1.00
2019-02-03T10:13:36.148Z,1.00
2019-02-03T10:18:37.463Z,1.00
2019-02-03T10:23:38.841Z,1.00
2019-02-03T10:28:40.136Z,1.20
2019-02-03T10:33:41.509Z,1.10
2019-02-03T10:38:42.779Z,1.00
2019-02-03T10:43:44.036Z,1.00
2019-02-03T10:48:45.305Z,1.00
2019-02-03T10:53:46.548Z,3.20
2019-02-03T10:58:47.937Z,2.90
2019-02-03T11:03:49.203Z,4.90
2019-02-03T11:08:50.674Z,3.40
2019-02-03T11:13:52.240Z,2.10
2019-02-03T11:18:53.510Z,5.80
2019-02-03T11:23:54.768Z,2.80
2019-02-03T11:28:56.349Z,5.70
2019-02-03T11:33:57.639Z,3.30
2019-02-03T11:38:58.953Z,5.70
2019-02-03T11:44:00.211Z,5.10
2019-02-03T11:49:01.761Z,6.50
2019-02-03T11:54:03.557Z,5.50
2019-02-03T11:59:04.925Z,5.60
2019-02-03T12:04:06.229Z,6.60
2019-02-03T12:09:07.946Z,2.40
2019-02-03T12:14:09.216Z,4.00
2019-02-03T12:19:10.490Z,4.20
2019-02-03T12:24:11.768Z,1.40
2019-02-03T12:29:13.039Z,4.10
2019-02-03T12:34:14.362Z,5.70
2019-02-03T12:39:15.611Z,1.00
2019-02-03T12:44:17.274Z,1.20
2019-02-03T12:49:18.551Z,1.00
2019-02-03T12:54:19.814Z,1.00
2019-02-03T12:59:21.094Z,1.00
2019-02-03T13:04:22.388Z,1.00
2019-02-03T13:09:23.646Z,1.00
2019-02-03T13:14:24.903Z,1.00
2019-02-03T13:19:26.155Z,1.00
2019-02-03T13:24:27.424Z,1.00
2019-02-03T13:29:28.708Z,1.00
2019-02-03T13:34:30.365Z,1.00
2019-02-03T13:39:31.839Z,1.00
2019-02-03T13:44:33.089Z,1.00
2019-02-03T13:49:34.373Z,1.00
2019-02-03T13:54:35.637Z,1.00
2019-02-03T13:59:38.946Z,1.00
2019-02-03T14:04:40.213Z,1.00
2019-02-03T14:09:41.473Z,1.00
2019-02-03T14:14:42.754Z,1.00
2019-02-03T14:19:44.017Z,1.00
2019-02-03T14:24:45.270Z,1.00
2019-02-03T14:29:46.940Z,1.00
2019-02-03T14:34:48.248Z,1.00
2019-02-03T14:39:49.538Z,1.00
2019-02-03T14:44:50.894Z,1.00
2019-02-03T14:49:52.393Z,1.00
2019-02-03T14:54:53.633Z,1.00
2019-02-03T14:59:55.831Z,1.00
2019-02-03T15:04:57.130Z,1.00
2019-02-03T15:09:58.372Z,1.00
2019-02-03T15:14:59.652Z,1.00
2019-02-03T15:20:01.126Z,1.00
2019-02-03T15:25:06.293Z,1.00
2019-02-03T15:30:23.997Z,1.00
2019-02-03T15:35:25.473Z,1.00
2019-02-03T15:40:27.050Z,1.00
2019-02-03T15:45:28.415Z,1.00
2019-02-03T15:50:30.193Z,1.00
2019-02-03T15:55:36.260Z,1.00
2019-02-03T16:00:42.329Z,1.00
2019-02-03T16:05:43.666Z,1.00
2019-02-03T16:10:44.943Z,1.00
2019-02-03T16:15:46.367Z,1.00
2019-02-03T16:20:47.660Z,1.00
2019-02-03T16:25:48.903Z,1.00
2019-02-03T16:30:50.204Z,1.00
2019-02-03T16:35:51.498Z,1.00
2019-02-03T16:40:52.827Z,1.00
2019-02-03T16:45:54.196Z,1.00
2019-02-03T16:50:55.519Z,1.00
2019-02-03T16:55:56.760Z,1.00
2019-02-03T17:00:58.161Z,1.00
2019-02-03T17:05:59.401Z,1.00
2019-02-03T17:11:00.749Z,1.00
2019-02-03T17:16:02.931Z,1.00
2019-02-03T17:21:04.164Z,1.00
2019-02-03T17:26:05.837Z,1.00
2019-02-03T17:31:07.166Z,1.00
2019-02-03T17:36:08.714Z,1.00
2019-02-03T17:41:09.966Z,1.00
2019-02-03T17:46:11.515Z,1.00
2019-02-03T17:51:12.966Z,1.00
2019-02-03T17:56:14.213Z,1.00
2019-02-03T18:01:15.580Z,1.00
2019-02-03T18:06:17.087Z,1.00
2019-02-03T18:11:18.479Z,1.00
2019-02-03T18:16:19.779Z,1.00
2019-02-03T18:21:21.048Z,1.00
2019-02-03T18:26:22.327Z,1.00
2019-02-03T18:31:23.792Z,1.00
2019-02-03T18:36:25.099Z,1.00
2019-02-03T18:41:26.465Z,1.00
2019-02-03T18:46:27.737Z,1.00
2019-02-03T18:51:28.991Z,1.00
2019-02-03T18:56:30.664Z,1.00
2019-02-03T19:01:31.932Z,1.00
2019-02-03T19:06:33.204Z,1.00
2019-02-03T19:11:34.467Z,1.00
2019-02-03T19:16:35.775Z,1.00
2019-02-03T19:21:37.129Z,1.00
2019-02-03T19:26:38.381Z,1.00
2019-02-03T19:31:39.661Z,1.00
2019-02-03T19:36:40.927Z,1.00
2019-02-03T19:41:42.192Z,1.00
2019-02-03T19:46:43.472Z,1.00
2019-02-03T19:51:44.759Z,1.00
2019-02-03T19:56:46.067Z,1.00
2019-02-03T20:01:47.367Z,1.00
2019-02-03T20:06:48.640Z,1.00
2019-02-03T20:11:49.934Z,1.00
2019-02-03T20:16:51.266Z,1.00
2019-02-03T20:21:52.539Z,1.00
2019-02-03T20:26:54.001Z,1.00
2019-02-03T20:31:55.349Z,1.00
2019-02-03T20:36:56.647Z,1.00
2019-02-03T20:41:57.919Z,1.00
2019-02-03T20:46:59.235Z,1.00
2019-02-03T20:52:01.233Z,1.00
2019-02-03T20:57:02.840Z,1.00
2019-02-03T21:02:04.301Z,1.00
2019-02-03T21:07:05.778Z,1.00
2019-02-03T21:12:07.173Z,1.00
2019-02-03T21:17:08.430Z,1.00
2019-02-03T21:22:09.906Z,1.00
2019-02-03T21:27:11.161Z,1.00
2019-02-03T21:32:12.422Z,1.00
2019-02-03T21:37:13.828Z,1.00
2019-02-03T21:42:15.160Z,1.00
2019-02-03T21:47:16.427Z,1.00
2019-02-03T21:52:17.719Z,1.00
2019-02-03T21:57:19.277Z,1.00
2019-02-03T22:02:20.515Z,1.00
2019-02-03T22:07:21.766Z,1.00
2019-02-03T22:12:23.183Z,1.00
2019-02-03T22:17:24.444Z,1.00
2019-02-03T22:22:26.099Z,2.30
2019-02-03T22:27:27.359Z,5.70
2019-02-03T22:32:28.634Z,6.50
2019-02-03T22:37:29.912Z,7.30
2019-02-03T22:42:31.144Z,7.50
2019-02-03T22:47:32.899Z,7.70
2019-02-03T22:52:34.377Z,8.40
2019-02-03T22:57:35.634Z,7.90
2019-02-03T23:02:36.974Z,7.90
2019-02-03T23:07:38.259Z,8.20
2019-02-03T23:12:40.032Z,8.10
2019-02-03T23:17:41.279Z,8.30
2019-02-03T23:22:42.531Z,8.50
2019-02-03T23:27:43.794Z,8.70
2019-02-03T23:32:45.177Z,8.90
2019-02-03T23:37:46.975Z,9.20
2019-02-03T23:42:48.374Z,9.10
2019-02-03T23:47:49.640Z,9.60
2019-02-03T23:52:50.889Z,9.70
2019-02-03T23:57:52.131Z,10.00
